createdAt,value
2018-02-19T00:01:54.353Z,14.10
2018-02-19T00:04:21.900Z,14.70
2018-02-19T00:06:49.457Z,11.80
2018-02-19T00:09:17.046Z,14.23
2018-02-19T00:11:44.581Z,14.57
2018-02-19T00:14:12.144Z,13.23
2018-02-19T00:16:39.674Z,13.57
2018-02-19T00:19:07.443Z,13.23
2018-02-19T00:21:34.950Z,15.63
2018-02-19T00:24:02.485Z,14.27
2018-02-19T00:26:30.048Z,14.47
2018-02-19T00:28:57.574Z,14.10
2018-02-19T00:31:25.140Z,14.00
2018-02-19T00:33:52.669Z,13.67
2018-02-19T00:36:20.191Z,10.83
2018-02-19T00:38:47.994Z,13.80
2018-02-19T00:41:15.498Z,9.17
2018-02-19T00:43:43.049Z,11.10
2018-02-19T00:46:10.573Z,14.93
2018-02-19T00:48:38.091Z,11.37
2018-02-19T00:51:05.630Z,11.33
2018-02-19T00:53:33.185Z,11.13
2018-02-19T00:56:00.781Z,12.70
2018-02-19T00:58:28.317Z,13.73
2018-02-19T01:00:55.880Z,10.43
2018-02-19T01:03:23.429Z,10.90
2018-02-19T01:05:50.977Z,10.97
2018-02-19T01:08:19.142Z,13.10
2018-02-19T01:10:46.709Z,10.30
2018-02-19T01:13:14.365Z,10.00
2018-02-19T01:15:41.893Z,11.60
2018-02-19T01:18:09.430Z,9.73
2018-02-19T01:20:36.953Z,12.30
2018-02-19T01:23:04.470Z,11.27
2018-02-19T01:25:31.998Z,9.10
2018-02-19T01:27:59.530Z,12.13
2018-02-19T01:30:27.096Z,10.03
2018-02-19T01:32:54.610Z,10.13
2018-02-19T01:35:22.153Z,11.77
2018-02-19T01:37:49.674Z,8.73
2018-02-19T01:40:17.186Z,10.30
2018-02-19T01:42:44.761Z,9.10
2018-02-19T01:45:12.319Z,8.90
2018-02-19T01:47:39.852Z,9.27
2018-02-19T01:50:15.998Z,8.50
2018-02-19T01:52:43.516Z,7.80
2018-02-19T01:55:11.056Z,9.20
2018-02-19T01:57:38.590Z,8.10
2018-02-19T02:00:06.300Z,10.13
2018-02-19T02:02:33.865Z,8.43
2018-02-19T02:05:01.402Z,10.10
2018-02-19T02:07:28.941Z,7.73
2018-02-19T02:09:56.463Z,8.10
2018-02-19T02:12:24.012Z,6.90
2018-02-19T02:14:51.526Z,8.83
2018-02-19T02:17:19.112Z,8.53
2018-02-19T02:19:46.636Z,7.97
2018-02-19T02:22:14.163Z,9.93
2018-02-19T02:24:41.725Z,8.80
2018-02-19T02:27:10.069Z,9.10
2018-02-19T02:29:37.848Z,10.73
2018-02-19T02:32:05.367Z,9.13
2018-02-19T02:34:32.909Z,8.43
2018-02-19T02:37:00.745Z,9.07
2018-02-19T02:39:28.279Z,10.50
2018-02-19T02:41:55.906Z,8.50
2018-02-19T02:44:23.453Z,9.30
2018-02-19T02:46:50.975Z,12.03
2018-02-19T02:49:18.497Z,8.10
2018-02-19T02:51:46.015Z,8.80
2018-02-19T02:54:13.538Z,8.47
2018-02-19T02:56:41.055Z,9.63
2018-02-19T02:59:08.570Z,7.83
2018-02-19T03:01:36.124Z,8.70
2018-02-19T03:04:03.677Z,8.73
2018-02-19T03:06:31.199Z,9.40
2018-02-19T03:08:58.724Z,9.10
2018-02-19T03:11:26.251Z,9.10
2018-02-19T03:13:53.804Z,8.57
2018-02-19T03:16:21.332Z,9.13
2018-02-19T03:18:48.869Z,8.83
2018-02-19T03:21:16.398Z,11.13
2018-02-19T03:23:43.927Z,9.20
2018-02-19T03:26:11.501Z,11.70
2018-02-19T03:28:39.033Z,9.47
2018-02-19T03:31:06.589Z,12.03
2018-02-19T03:33:34.104Z,9.10
2018-02-19T03:36:01.620Z,9.67
2018-02-19T03:38:29.184Z,10.53
2018-02-19T03:40:56.988Z,10.43
2018-02-19T03:43:24.560Z,10.20
2018-02-19T03:45:52.082Z,9.30
2018-02-19T03:48:19.630Z,9.20
2018-02-19T03:50:47.149Z,8.07
2018-02-19T03:53:14.657Z,9.53
2018-02-19T03:55:42.205Z,8.47
2018-02-19T03:58:09.760Z,8.93
2018-02-19T04:00:37.324Z,10.07
2018-02-19T04:03:04.870Z,10.07
2018-02-19T04:05:32.412Z,13.00
2018-02-19T04:08:00.282Z,11.00
2018-02-19T04:10:27.887Z,11.40
2018-02-19T04:12:56.346Z,10.70
2018-02-19T04:15:24.020Z,11.20
2018-02-19T04:17:51.540Z,12.97
2018-02-19T04:20:19.087Z,9.53
2018-02-19T04:22:46.616Z,10.50
2018-02-19T04:25:14.197Z,12.30
2018-02-19T04:27:41.718Z,12.43
2018-02-19T04:30:09.462Z,11.40
2018-02-19T04:32:37.033Z,12.00
2018-02-19T04:35:04.559Z,13.30
2018-02-19T04:37:32.121Z,12.60
2018-02-19T04:39:59.685Z,13.80
2018-02-19T04:42:27.224Z,11.40
2018-02-19T04:45:00.688Z,11.07
2018-02-19T04:47:28.208Z,11.63
2018-02-19T04:49:55.763Z,14.10
2018-02-19T04:52:23.293Z,12.90
2018-02-19T04:54:51.018Z,9.97
2018-02-19T04:57:18.565Z,10.40
2018-02-19T04:59:46.121Z,11.40
2018-02-19T05:02:13.679Z,12.50
2018-02-19T05:04:41.204Z,10.67
2018-02-19T05:07:08.722Z,10.67
2018-02-19T05:09:36.255Z,12.43
2018-02-19T05:12:03.872Z,13.10
2018-02-19T05:14:31.558Z,13.23
2018-02-19T05:16:59.086Z,11.40
2018-02-19T05:19:26.625Z,13.10
2018-02-19T05:21:54.512Z,13.20
2018-02-19T05:24:22.035Z,14.40
2018-02-19T05:26:49.571Z,13.10
2018-02-19T05:29:17.096Z,12.30
2018-02-19T05:31:46.260Z,27.50
2018-02-19T05:34:13.793Z,29.03
2018-02-19T05:36:41.351Z,31.30
2018-02-19T05:39:08.878Z,30.83
2018-02-19T05:41:36.449Z,17.37
2018-02-19T05:44:04.030Z,16.10
2018-02-19T05:46:31.567Z,18.97
2018-02-19T05:48:59.104Z,14.80
2018-02-19T05:51:26.648Z,19.17
2018-02-19T05:53:54.171Z,18.57
2018-02-19T05:56:21.719Z,23.93
2018-02-19T05:58:49.233Z,27.73
2018-02-19T06:01:16.780Z,29.00
2018-02-19T06:03:44.321Z,25.00
2018-02-19T06:06:11.837Z,23.10
2018-02-19T06:08:40.459Z,20.40
2018-02-19T06:11:07.988Z,18.90
2018-02-19T06:13:35.549Z,20.13
2018-02-19T06:16:03.271Z,23.60
2018-02-19T06:18:30.900Z,19.47
2018-02-19T06:20:58.421Z,17.13
2018-02-19T06:23:26.227Z,16.57
2018-02-19T06:25:53.803Z,12.37
2018-02-19T06:28:21.365Z,12.27
2018-02-19T06:30:49.122Z,9.50
2018-02-19T06:33:16.657Z,9.97
2018-02-19T06:35:44.209Z,11.47
2018-02-19T06:38:11.949Z,10.40
2018-02-19T06:40:39.470Z,10.50
2018-02-19T06:43:07.099Z,11.13
2018-02-19T06:45:34.652Z,10.70
2018-02-19T06:48:02.182Z,12.70
2018-02-19T06:50:29.742Z,13.57
2018-02-19T06:52:57.473Z,19.83
2018-02-19T06:55:24.993Z,14.17
2018-02-19T06:57:52.517Z,11.90
2018-02-19T07:00:20.076Z,14.80
2018-02-19T07:02:47.686Z,12.73
2018-02-19T07:05:15.263Z,15.07
2018-02-19T07:07:42.845Z,13.87
2018-02-19T07:10:10.374Z,18.80
2018-02-19T07:12:37.947Z,15.47
2018-02-19T07:15:05.479Z,16.10
2018-02-19T07:17:33.277Z,27.53
2018-02-19T07:20:00.891Z,27.43
2018-02-19T07:22:28.448Z,30.30
2018-02-19T07:24:56.098Z,27.80
2018-02-19T07:27:23.634Z,22.87
2018-02-19T07:29:51.173Z,28.30
2018-02-19T07:32:18.718Z,25.50
2018-02-19T07:34:46.243Z,29.40
2018-02-19T07:37:13.776Z,22.80
2018-02-19T07:39:41.320Z,21.17
2018-02-19T07:42:08.856Z,18.47
2018-02-19T07:44:36.392Z,20.70
2018-02-19T07:47:03.918Z,19.60
2018-02-19T07:49:31.438Z,19.67
2018-02-19T07:51:58.996Z,20.17
2018-02-19T07:54:26.534Z,21.03
2018-02-19T07:56:54.054Z,19.90
2018-02-19T07:59:21.579Z,20.03
2018-02-19T08:01:49.128Z,22.07
2018-02-19T08:04:16.654Z,28.83
2018-02-19T08:06:44.190Z,31.50
2018-02-19T08:09:11.724Z,28.93
2018-02-19T08:11:39.263Z,25.53
2018-02-19T08:14:06.821Z,26.23
2018-02-19T08:16:34.348Z,26.40
2018-02-19T08:19:01.871Z,31.57
2018-02-19T08:21:29.443Z,31.30
2018-02-19T08:23:57.011Z,36.80
2018-02-19T08:26:24.553Z,40.17
2018-02-19T08:28:52.098Z,40.97
2018-02-19T08:31:19.634Z,34.93
2018-02-19T08:33:47.180Z,35.70
2018-02-19T08:36:14.729Z,31.70
2018-02-19T08:38:42.272Z,33.07
2018-02-19T08:41:09.861Z,37.00
2018-02-19T08:43:37.538Z,34.20
2018-02-19T08:46:05.065Z,35.83
2018-02-19T08:48:32.595Z,31.07
2018-02-19T08:51:00.137Z,36.87
2018-02-19T08:53:27.680Z,31.27
2018-02-19T08:55:55.240Z,21.57
2018-02-19T08:58:22.772Z,24.00
2018-02-19T09:00:50.348Z,24.67
2018-02-19T09:03:17.887Z,23.43
2018-02-19T09:05:45.449Z,24.40
2018-02-19T09:08:12.990Z,22.53
2018-02-19T09:10:40.535Z,27.90
2018-02-19T09:13:08.071Z,26.07
2018-02-19T09:15:35.607Z,23.67
2018-02-19T09:18:03.147Z,32.47
2018-02-19T09:20:30.694Z,24.67
2018-02-19T09:22:58.212Z,18.80
2018-02-19T09:25:25.759Z,21.33
2018-02-19T09:27:53.283Z,20.70
2018-02-19T09:30:20.850Z,28.13
2018-02-19T09:32:48.386Z,22.53
2018-02-19T09:35:16.156Z,21.63
2018-02-19T09:37:44.197Z,22.90
2018-02-19T09:40:11.770Z,20.17
2018-02-19T09:42:39.324Z,22.97
2018-02-19T09:45:06.849Z,18.83
2018-02-19T09:47:34.386Z,22.07
2018-02-19T09:50:01.912Z,22.37
2018-02-19T09:52:29.443Z,20.60
2018-02-19T09:54:56.996Z,18.77
2018-02-19T09:57:24.521Z,13.93
2018-02-19T09:59:52.048Z,19.20
2018-02-19T10:02:19.623Z,16.73
2018-02-19T10:04:47.161Z,21.70
2018-02-19T10:07:14.702Z,20.20
2018-02-19T10:09:42.237Z,18.60
2018-02-19T10:12:09.775Z,17.40
2018-02-19T10:14:37.329Z,19.80
2018-02-19T10:17:04.899Z,14.27
2018-02-19T10:19:32.431Z,17.73
2018-02-19T10:22:00.025Z,18.97
2018-02-19T10:24:27.564Z,14.40
2018-02-19T10:26:55.126Z,17.37
2018-02-19T10:29:22.649Z,15.57
2018-02-19T10:31:50.182Z,14.23
2018-02-19T10:34:17.737Z,15.00
2018-02-19T10:36:45.254Z,19.10
2018-02-19T10:39:13.153Z,18.03
2018-02-19T10:41:40.687Z,20.37
2018-02-19T10:44:08.243Z,16.90
2018-02-19T10:46:35.770Z,17.73
2018-02-19T10:49:03.313Z,16.70
2018-02-19T10:51:30.853Z,20.30
2018-02-19T10:53:58.397Z,21.70
2018-02-19T10:56:25.951Z,19.53
2018-02-19T10:58:53.707Z,17.40
2018-02-19T11:01:21.268Z,21.87
2018-02-19T11:03:48.815Z,17.50
2018-02-19T11:06:16.352Z,22.17
2018-02-19T11:08:43.892Z,21.43
2018-02-19T11:11:11.414Z,20.87
2018-02-19T11:13:39.113Z,22.53
2018-02-19T11:16:06.666Z,21.90
2018-02-19T11:18:34.204Z,16.30
2018-02-19T11:21:01.734Z,15.70
2018-02-19T11:23:29.259Z,17.43
2018-02-19T11:25:56.861Z,17.10
2018-02-19T11:28:24.398Z,19.80
2018-02-19T11:30:51.962Z,16.93
2018-02-19T11:33:19.532Z,15.10
2018-02-19T11:35:47.082Z,11.90
2018-02-19T11:38:14.618Z,13.03
2018-02-19T11:40:42.141Z,11.70
2018-02-19T11:43:09.700Z,14.83
2018-02-19T11:45:37.232Z,12.80
2018-02-19T11:48:04.754Z,13.23
2018-02-19T11:50:32.319Z,11.93
2018-02-19T11:52:59.889Z,9.33
2018-02-19T11:55:27.447Z,9.30
2018-02-19T11:57:54.974Z,7.60
2018-02-19T12:00:22.533Z,9.90
2018-02-19T12:02:50.050Z,8.60
2018-02-19T12:05:17.612Z,7.17
2018-02-19T12:07:45.124Z,8.40
2018-02-19T12:10:12.686Z,7.10
2018-02-19T12:12:40.261Z,8.47
2018-02-19T12:15:07.792Z,8.43
2018-02-19T12:17:35.325Z,6.23
2018-02-19T12:20:02.854Z,8.40
2018-02-19T12:22:30.398Z,6.90
2018-02-19T12:24:57.957Z,5.90
2018-02-19T12:27:25.479Z,8.40
2018-02-19T12:29:53.005Z,8.57
2018-02-19T12:32:20.536Z,8.53
2018-02-19T12:34:48.065Z,6.13
2018-02-19T12:37:15.617Z,6.33
2018-02-19T12:39:43.152Z,8.23
2018-02-19T12:42:10.726Z,5.87
2018-02-19T12:44:38.242Z,7.33
2018-02-19T12:47:06.163Z,7.57
2018-02-19T12:49:33.732Z,8.13
2018-02-19T12:52:01.247Z,7.83
2018-02-19T12:54:28.779Z,9.43
2018-02-19T12:56:56.302Z,7.23
2018-02-19T12:59:23.820Z,7.77
2018-02-19T13:01:51.354Z,9.17
2018-02-19T13:04:18.867Z,6.67
2018-02-19T13:06:46.366Z,7.53
2018-02-19T13:09:13.960Z,7.70
2018-02-19T13:11:41.498Z,8.70
2018-02-19T13:14:09.055Z,8.03
2018-02-19T13:16:36.569Z,9.40
2018-02-19T13:19:04.091Z,10.50
2018-02-19T13:21:31.628Z,9.40
2018-02-19T13:23:59.155Z,9.47
2018-02-19T13:26:27.454Z,11.50
2018-02-19T13:28:55.021Z,8.10
2018-02-19T13:31:22.843Z,9.20
2018-02-19T13:33:50.393Z,8.97
2018-02-19T13:36:17.932Z,13.17
2018-02-19T13:38:45.453Z,9.73
2018-02-19T13:41:12.973Z,13.23
2018-02-19T13:43:40.944Z,16.70
2018-02-19T13:46:08.474Z,10.33
2018-02-19T13:48:36.020Z,15.30
2018-02-19T13:51:03.540Z,9.10
2018-02-19T13:53:31.058Z,14.97
2018-02-19T13:55:58.718Z,13.27
2018-02-19T13:58:26.243Z,11.20
2018-02-19T14:00:53.804Z,11.90
2018-02-19T14:03:21.327Z,11.90
2018-02-19T14:05:48.880Z,6.47
2018-02-19T14:08:16.398Z,15.47
2018-02-19T14:10:43.940Z,11.60
2018-02-19T14:13:11.502Z,10.43
2018-02-19T14:15:39.034Z,8.00
2018-02-19T14:18:06.589Z,12.73
2018-02-19T14:20:34.120Z,10.07
2018-02-19T14:23:01.627Z,9.00
2018-02-19T14:25:29.141Z,13.47
2018-02-19T14:27:56.662Z,8.70
2018-02-19T14:30:24.190Z,9.97
2018-02-19T14:32:51.717Z,9.87
2018-02-19T14:35:19.361Z,12.33
2018-02-19T14:37:46.873Z,11.17
2018-02-19T14:40:14.401Z,10.23
2018-02-19T14:42:41.952Z,14.00
2018-02-19T14:45:09.480Z,10.10
2018-02-19T14:47:37.009Z,10.10
2018-02-19T14:50:05.408Z,12.70
2018-02-19T14:52:32.928Z,12.27
2018-02-19T14:55:00.454Z,15.23
2018-02-19T14:57:28.005Z,18.00
2018-02-19T14:59:55.522Z,17.63
2018-02-19T15:02:23.089Z,22.23
2018-02-19T15:04:50.614Z,17.50
2018-02-19T15:07:18.125Z,10.73
2018-02-19T15:09:45.680Z,15.63
2018-02-19T15:12:13.213Z,13.13
2018-02-19T15:14:40.734Z,16.60
2018-02-19T15:17:08.251Z,15.40
2018-02-19T15:19:35.765Z,14.60
2018-02-19T15:22:03.472Z,10.70
2018-02-19T15:24:30.987Z,11.33
2018-02-19T15:26:58.512Z,12.07
2018-02-19T15:29:26.040Z,11.47
2018-02-19T15:31:53.605Z,11.50
2018-02-19T15:34:21.145Z,14.10
2018-02-19T15:36:48.666Z,9.52
2018-02-19T15:39:16.200Z,13.23
2018-02-19T15:41:43.730Z,14.00
2018-02-19T15:44:11.817Z,15.80
2018-02-19T15:46:39.401Z,18.27
2018-02-19T15:49:06.930Z,14.30
2018-02-19T15:51:34.517Z,12.30
2018-02-19T15:54:02.041Z,16.57
2018-02-19T15:56:29.672Z,13.40
2018-02-19T15:58:57.267Z,14.87
2018-02-19T16:01:24.826Z,10.40
2018-02-19T16:03:52.360Z,12.52
2018-02-19T16:06:19.876Z,9.50
2018-02-19T16:08:47.394Z,10.98
2018-02-19T16:11:14.913Z,13.43
2018-02-19T16:13:42.455Z,13.67
2018-02-19T16:16:09.994Z,18.17
2018-02-19T16:18:37.542Z,15.18
2018-02-19T16:21:05.075Z,12.27
2018-02-19T16:23:32.660Z,18.25
2018-02-19T16:26:00.221Z,17.70
2018-02-19T16:28:27.787Z,19.95
2018-02-19T16:30:55.459Z,16.60
2018-02-19T16:33:23.240Z,15.25
2018-02-19T16:35:50.762Z,13.93
2018-02-19T16:38:18.283Z,17.20
2018-02-19T16:40:45.813Z,21.77
2018-02-19T16:43:13.428Z,12.00
2018-02-19T16:45:40.973Z,13.07
2018-02-19T16:48:08.758Z,8.82
2018-02-19T16:50:36.295Z,14.20
2018-02-19T16:53:03.866Z,14.50
2018-02-19T16:55:31.428Z,13.85
2018-02-19T16:57:58.979Z,16.75
2018-02-19T17:00:26.554Z,10.32
2018-02-19T17:02:54.079Z,12.80
2018-02-19T17:05:21.899Z,13.68
2018-02-19T17:07:49.470Z,12.52
2018-02-19T17:10:16.992Z,14.68
2018-02-19T17:12:44.564Z,17.02
2018-02-19T17:15:12.134Z,14.70
2018-02-19T17:17:39.673Z,20.73
2018-02-19T17:20:07.263Z,18.52
2018-02-19T17:22:34.791Z,19.10
2018-02-19T17:25:02.514Z,17.58
2018-02-19T17:27:30.032Z,24.23
2018-02-19T17:29:57.619Z,23.38
2018-02-19T17:32:25.141Z,18.98
2018-02-19T17:34:54.224Z,24.43
2018-02-19T17:37:21.811Z,20.00
2018-02-19T17:39:49.666Z,22.80
2018-02-19T17:42:17.182Z,26.73
2018-02-19T17:44:45.931Z,32.55
2018-02-19T17:47:13.720Z,40.70
2018-02-19T17:49:41.521Z,25.70
2018-02-19T17:52:09.561Z,34.67
2018-02-19T17:54:37.092Z,27.52
2018-02-19T17:57:04.629Z,32.35
2018-02-19T17:59:32.206Z,30.90
2018-02-19T18:01:59.951Z,41.17
2018-02-19T18:04:27.514Z,37.15
2018-02-19T18:06:55.073Z,22.97
2018-02-19T18:09:22.620Z,22.02
2018-02-19T18:11:50.176Z,17.70
2018-02-19T18:14:17.745Z,15.00
2018-02-19T18:16:45.294Z,19.80
2018-02-19T18:19:12.834Z,20.10
2018-02-19T18:21:40.373Z,21.20
2018-02-19T18:24:07.952Z,23.17
2018-02-19T18:26:36.518Z,19.67
2018-02-19T18:29:04.053Z,17.62
2018-02-19T18:31:31.946Z,23.73
2018-02-19T18:33:59.546Z,14.27
2018-02-19T18:36:27.102Z,12.73
2018-02-19T18:38:54.650Z,15.20
2018-02-19T18:41:22.197Z,13.30
2018-02-19T18:43:50.028Z,13.35
2018-02-19T18:46:17.573Z,11.10
2018-02-19T18:48:45.196Z,16.30
2018-02-19T18:51:12.779Z,15.25
2018-02-19T18:53:40.373Z,13.45
2018-02-19T18:56:07.930Z,16.42
2018-02-19T18:58:35.514Z,11.65
2018-02-19T19:01:03.140Z,10.57
2018-02-19T19:03:30.711Z,14.45
2018-02-19T19:05:58.247Z,14.50
2018-02-19T19:08:37.360Z,12.30
2018-02-19T19:11:04.910Z,12.33
2018-02-19T19:13:32.448Z,11.70
2018-02-19T19:15:59.980Z,14.57
2018-02-19T19:18:27.550Z,15.27
2018-02-19T19:20:55.121Z,17.50
2018-02-19T19:23:22.878Z,17.03
2018-02-19T19:25:50.525Z,18.23
2018-02-19T19:28:18.089Z,16.90
2018-02-19T19:30:45.770Z,24.55
2018-02-19T19:33:13.685Z,22.07
2018-02-19T19:35:41.332Z,23.80
2018-02-19T19:38:08.872Z,26.73
2018-02-19T19:40:36.572Z,17.73
2018-02-19T19:43:05.278Z,17.77
2018-02-19T19:45:33.014Z,18.77
2018-02-19T19:48:00.520Z,19.80
2018-02-19T19:50:28.033Z,16.97
2018-02-19T19:52:55.662Z,18.67
2018-02-19T19:55:23.229Z,19.12
2018-02-19T19:57:50.755Z,17.60
2018-02-19T20:00:18.326Z,18.95
2018-02-19T20:02:45.884Z,16.93
2018-02-19T20:05:13.414Z,16.62
2018-02-19T20:07:41.136Z,13.77
2018-02-19T20:10:08.728Z,17.50
2018-02-19T20:12:36.273Z,13.65
2018-02-19T20:15:03.796Z,15.63
2018-02-19T20:17:31.361Z,15.43
2018-02-19T20:19:58.882Z,13.23
2018-02-19T20:22:26.422Z,13.95
2018-02-19T20:24:53.953Z,12.27
2018-02-19T20:27:21.505Z,13.97
2018-02-19T20:29:49.027Z,15.20
2018-02-19T20:32:16.547Z,10.57
2018-02-19T20:34:44.086Z,18.10
2018-02-19T20:37:11.626Z,12.05
2018-02-19T20:39:39.182Z,10.00
2018-02-19T20:42:06.768Z,14.63
2018-02-19T20:44:34.298Z,13.55
2018-02-19T20:47:01.843Z,10.43
2018-02-19T20:49:29.419Z,9.40
2018-02-19T20:51:56.950Z,11.10
2018-02-19T20:54:24.511Z,12.60
2018-02-19T20:56:52.034Z,12.30
2018-02-19T20:59:19.574Z,10.40
2018-02-19T21:01:47.119Z,10.60
2018-02-19T21:04:14.709Z,10.38
2018-02-19T21:06:43.197Z,14.98
2018-02-19T21:09:10.750Z,14.10
2018-02-19T21:11:38.319Z,11.53
2018-02-19T21:14:05.875Z,14.23
2018-02-19T21:16:33.408Z,10.13
2018-02-19T21:19:00.967Z,14.07
2018-02-19T21:21:28.500Z,10.52
2018-02-19T21:23:56.081Z,7.55
2018-02-19T21:26:23.638Z,8.87
2018-02-19T21:28:51.168Z,10.07
2018-02-19T21:31:18.873Z,11.80
2018-02-19T21:33:46.613Z,8.60
2018-02-19T21:36:14.236Z,6.60
2018-02-19T21:38:41.758Z,8.67
2018-02-19T21:41:09.262Z,9.70
2018-02-19T21:43:36.790Z,11.77
2018-02-19T21:46:04.316Z,12.13
2018-02-19T21:48:31.952Z,8.73
2018-02-19T21:50:59.508Z,9.98
2018-02-19T21:53:27.068Z,8.63
2018-02-19T21:55:54.818Z,8.73
2018-02-19T21:58:22.344Z,11.67
2018-02-19T22:00:50.702Z,10.33
2018-02-19T22:03:18.228Z,7.93
2018-02-19T22:05:45.764Z,7.27
2018-02-19T22:08:13.278Z,8.80
2018-02-19T22:10:40.788Z,8.70
2018-02-19T22:13:08.326Z,8.37
2018-02-19T22:15:35.851Z,7.72
2018-02-19T22:18:03.385Z,5.70
2018-02-19T22:20:30.910Z,8.27
2018-02-19T22:22:58.427Z,8.60
2018-02-19T22:25:25.981Z,8.15
2018-02-19T22:27:53.495Z,6.93
2018-02-19T22:30:21.018Z,4.50
2018-02-19T22:32:48.588Z,4.43
2018-02-19T22:35:16.117Z,5.72
2018-02-19T22:37:43.637Z,8.27
2018-02-19T22:40:11.144Z,4.37
2018-02-19T22:42:38.656Z,5.50
2018-02-19T22:45:06.182Z,4.83
2018-02-19T22:47:33.706Z,10.43
2018-02-19T22:50:01.238Z,3.67
2018-02-19T22:52:28.754Z,5.43
2018-02-19T22:54:56.290Z,6.30
2018-02-19T22:57:23.948Z,5.27
2018-02-19T22:59:51.475Z,5.77
2018-02-19T23:02:19.070Z,5.15
2018-02-19T23:04:46.597Z,6.20
2018-02-19T23:07:14.115Z,4.90
2018-02-19T23:09:41.640Z,5.45
2018-02-19T23:12:09.254Z,5.10
2018-02-19T23:14:36.801Z,4.70
2018-02-19T23:17:04.327Z,5.07
2018-02-19T23:19:31.902Z,5.68
2018-02-19T23:21:59.435Z,6.10
2018-02-19T23:24:26.951Z,7.25
2018-02-19T23:26:54.539Z,7.47
2018-02-19T23:29:22.078Z,4.60
2018-02-19T23:31:50.252Z,8.35
2018-02-19T23:34:17.768Z,5.40
2018-02-19T23:36:45.287Z,7.50
2018-02-19T23:39:12.801Z,8.07
2018-02-19T23:41:40.314Z,8.20
2018-02-19T23:44:07.838Z,6.60
2018-02-19T23:46:35.420Z,6.15
2018-02-19T23:49:02.954Z,7.67
2018-02-19T23:51:30.479Z,8.70
2018-02-19T23:53:58.423Z,4.90
2018-02-19T23:56:25.966Z,8.30
2018-02-19T23:58:53.534Z,5.83
